createdAt,value
2023-03-24T00:00:43.930Z,13.10
2023-03-24T00:02:18.604Z,13.10
2023-03-24T00:03:52.322Z,13.10
2023-03-24T00:05:28.465Z,13.00
2023-03-24T00:07:01.689Z,13.10
2023-03-24T00:08:36.752Z,13.00
2023-03-24T00:10:14.892Z,13.00
2023-03-24T00:11:48.502Z,13.00
2023-03-24T00:13:20.504Z,13.00
2023-03-24T00:14:54.530Z,13.00
2023-03-24T00:16:27.882Z,13.00
2023-03-24T00:18:02.148Z,13.00
2023-03-24T00:19:38.319Z,13.00
2023-03-24T00:21:13.564Z,13.00
2023-03-24T00:22:51.097Z,13.00
2023-03-24T00:24:24.246Z,13.00
2023-03-24T00:26:02.621Z,13.10
2023-03-24T00:27:36.949Z,13.10
2023-03-24T00:29:11.095Z,13.10
2023-03-24T00:30:51.707Z,13.10
2023-03-24T00:32:24.700Z,13.10
2023-03-24T00:33:59.384Z,13.10
2023-03-24T00:35:31.499Z,13.10
2023-03-24T00:37:04.767Z,13.10
2023-03-24T00:38:37.619Z,13.20
2023-03-24T00:40:13.858Z,13.20
2023-03-24T00:41:47.994Z,13.20
2023-03-24T00:43:20.222Z,13.20
2023-03-24T00:44:54.148Z,13.20
2023-03-24T00:46:30.787Z,13.30
2023-03-24T00:48:05.249Z,13.40
2023-03-24T00:49:45.125Z,13.50
2023-03-24T00:51:18.539Z,13.40
2023-03-24T00:52:51.390Z,13.60
2023-03-24T00:54:32.078Z,13.50
2023-03-24T00:56:05.720Z,13.60
2023-03-24T00:57:37.773Z,13.60
2023-03-24T00:59:13.797Z,13.60
2023-03-24T01:00:47.852Z,13.50
2023-03-24T01:02:24.615Z,13.50
2023-03-24T01:03:57.951Z,13.50
2023-03-24T01:05:33.151Z,13.50
2023-03-24T01:07:05.719Z,13.40
2023-03-24T01:08:39.021Z,13.40
2023-03-24T01:10:13.946Z,13.40
2023-03-24T01:11:47.051Z,13.30
2023-03-24T01:13:21.362Z,13.30
2023-03-24T01:14:54.877Z,13.20
2023-03-24T01:16:28.107Z,13.20
2023-03-24T01:18:02.179Z,13.20
2023-03-24T01:19:34.315Z,13.10
2023-03-24T01:21:09.676Z,13.10
2023-03-24T01:22:44.720Z,13.10
2023-03-24T01:24:18.980Z,13.00
2023-03-24T01:25:51.814Z,13.00
2023-03-24T01:27:26.167Z,13.00
2023-03-24T01:28:59.635Z,13.00
2023-03-24T01:30:33.318Z,12.90
2023-03-24T01:32:06.893Z,12.90
2023-03-24T01:33:40.590Z,12.90
2023-03-24T01:35:13.873Z,12.90
2023-03-24T01:36:48.101Z,12.80
2023-03-24T01:38:20.229Z,12.90
2023-03-24T01:39:53.442Z,12.80
2023-03-24T01:41:27.834Z,12.80
2023-03-24T01:43:01.850Z,12.80
2023-03-24T01:44:36.586Z,12.80
2023-03-24T01:46:16.443Z,12.90
2023-03-24T01:47:50.421Z,12.90
2023-03-24T01:49:25.433Z,12.90
2023-03-24T01:51:01.892Z,12.90
2023-03-24T01:52:37.943Z,12.90
2023-03-24T01:54:19.106Z,12.80
2023-03-24T01:55:52.108Z,12.80
2023-03-24T01:57:28.946Z,12.80
2023-03-24T01:59:07.070Z,12.70
2023-03-24T02:00:39.654Z,12.70
2023-03-24T02:02:13.871Z,12.70
2023-03-24T02:03:47.473Z,12.70
2023-03-24T02:05:20.605Z,12.70
2023-03-24T02:06:55.068Z,12.60
2023-03-24T02:08:35.335Z,12.60
2023-03-24T02:10:12.726Z,12.60
2023-03-24T02:11:46.720Z,12.60
2023-03-24T02:13:19.776Z,12.60
2023-03-24T02:14:53.144Z,12.50
2023-03-24T02:16:32.254Z,12.60
2023-03-24T02:18:13.386Z,12.60
2023-03-24T02:20:20.288Z,12.50
2023-03-24T02:22:21.382Z,12.50
2023-03-24T02:24:21.801Z,12.50
2023-03-24T02:26:38.232Z,12.60
2023-03-24T02:28:23.967Z,12.60
2023-03-24T02:30:40.350Z,12.60
2023-03-24T02:32:52.629Z,12.60
2023-03-24T02:34:55.182Z,12.70
2023-03-24T02:36:57.422Z,12.70
2023-03-24T02:39:09.239Z,12.70
2023-03-24T02:40:47.521Z,12.70
2023-03-24T02:42:31.074Z,12.60
2023-03-24T02:44:10.385Z,12.70
2023-03-24T02:45:51.573Z,12.70
2023-03-24T02:47:29.226Z,12.70
2023-03-24T02:49:17.965Z,12.70
2023-03-24T02:50:55.833Z,12.70
2023-03-24T02:52:37.055Z,12.70
2023-03-24T02:54:14.229Z,12.70
2023-03-24T02:55:53.378Z,12.70
2023-03-24T02:57:36.166Z,12.70
2023-03-24T02:59:17.281Z,12.70
2023-03-24T03:00:59.756Z,12.70
2023-03-24T03:02:37.061Z,12.70
2023-03-24T03:04:14.112Z,12.60
2023-03-24T03:05:52.333Z,12.60
2023-03-24T03:07:28.009Z,12.60
2023-03-24T03:09:07.813Z,12.60
2023-03-24T03:10:43.879Z,12.70
2023-03-24T03:12:21.567Z,12.60
2023-03-24T03:13:59.319Z,12.70
2023-03-24T03:15:37.547Z,12.70
2023-03-24T03:17:14.644Z,12.70
2023-03-24T03:18:51.813Z,12.70
2023-03-24T03:20:31.049Z,12.80
2023-03-24T03:22:07.568Z,12.70
2023-03-24T03:23:45.260Z,12.70
2023-03-24T03:25:22.813Z,12.70
2023-03-24T03:26:58.452Z,12.80
2023-03-24T03:28:35.165Z,12.80
2023-03-24T03:30:14.264Z,12.80
2023-03-24T03:31:53.795Z,12.80
2023-03-24T03:33:32.130Z,12.80
2023-03-24T03:35:11.160Z,12.70
2023-03-24T03:36:52.092Z,12.70
2023-03-24T03:38:30.370Z,12.70
2023-03-24T03:40:09.165Z,12.70
2023-03-24T03:41:43.558Z,12.70
2023-03-24T03:43:16.977Z,12.60
2023-03-24T03:44:51.598Z,12.70
2023-03-24T03:46:26.062Z,12.60
2023-03-24T03:47:59.383Z,12.60
2023-03-24T03:49:32.794Z,12.70
2023-03-24T03:51:13.779Z,12.70
2023-03-24T03:52:47.657Z,12.70
2023-03-24T03:54:21.448Z,12.70
2023-03-24T03:55:56.940Z,12.70
2023-03-24T03:57:30.290Z,12.70
2023-03-24T03:59:02.926Z,12.70
2023-03-24T04:00:37.978Z,12.70
2023-03-24T04:02:29.188Z,12.70
2023-03-24T04:04:26.856Z,12.70
2023-03-24T04:06:04.534Z,12.60
2023-03-24T04:07:45.212Z,12.60
2023-03-24T04:09:35.132Z,12.60
2023-03-24T04:11:26.857Z,12.60
2023-03-24T04:13:16.337Z,12.50
2023-03-24T04:15:26.645Z,12.50
2023-03-24T04:17:13.930Z,12.40
2023-03-24T04:18:57.083Z,12.40
2023-03-24T04:20:34.399Z,12.40
2023-03-24T04:22:20.837Z,12.40
2023-03-24T04:24:05.267Z,12.40
2023-03-24T04:25:49.979Z,12.40
2023-03-24T04:27:30.683Z,12.40
2023-03-24T04:29:10.743Z,12.50
2023-03-24T04:30:47.717Z,12.40
2023-03-24T04:32:32.382Z,12.50
2023-03-24T04:34:12.859Z,12.40
2023-03-24T04:35:50.304Z,12.40
2023-03-24T04:37:26.763Z,12.40
2023-03-24T04:39:01.813Z,12.40
2023-03-24T04:40:41.915Z,12.40
2023-03-24T04:42:18.829Z,12.40
2023-03-24T04:43:53.107Z,12.40
2023-03-24T04:45:26.569Z,12.40
2023-03-24T04:47:01.034Z,12.40
2023-03-24T04:48:35.391Z,12.40
2023-03-24T04:50:11.474Z,12.40
2023-03-24T04:51:45.737Z,12.40
2023-03-24T04:53:19.168Z,12.40
2023-03-24T04:54:52.093Z,12.50
2023-03-24T04:56:39.996Z,12.50
2023-03-24T04:58:13.219Z,12.50
2023-03-24T04:59:46.197Z,12.50
2023-03-24T05:01:21.489Z,12.50
2023-03-24T05:02:54.667Z,12.50
2023-03-24T05:04:29.996Z,12.50
2023-03-24T05:06:05.629Z,12.50
2023-03-24T05:07:38.549Z,12.50
2023-03-24T05:09:11.801Z,12.60
2023-03-24T05:10:44.619Z,12.60
2023-03-24T05:12:17.784Z,12.70
2023-03-24T05:13:50.720Z,12.70
2023-03-24T05:15:23.733Z,12.70
2023-03-24T05:16:56.656Z,12.70
2023-03-24T05:18:29.709Z,12.70
2023-03-24T05:20:06.859Z,12.70
2023-03-24T05:21:39.796Z,12.70
2023-03-24T05:23:12.740Z,12.70
2023-03-24T05:24:45.681Z,12.70
2023-03-24T05:26:18.630Z,12.80
2023-03-24T05:27:50.892Z,12.80
2023-03-24T05:29:23.837Z,12.80
2023-03-24T05:30:56.854Z,12.80
2023-03-24T05:32:29.956Z,12.80
2023-03-24T05:34:02.850Z,12.90
2023-03-24T05:35:37.231Z,12.90
2023-03-24T05:37:12.938Z,12.90
2023-03-24T05:38:45.940Z,12.90
2023-03-24T05:40:19.091Z,13.00
2023-03-24T05:41:52.008Z,13.00
2023-03-24T05:43:25.343Z,13.00
2023-03-24T05:44:58.412Z,13.10
2023-03-24T05:46:31.504Z,13.20
2023-03-24T05:48:04.731Z,13.20
2023-03-24T05:49:38.063Z,13.30
2023-03-24T05:51:12.269Z,13.30
2023-03-24T05:52:45.494Z,13.30
2023-03-24T05:54:18.552Z,13.30
2023-03-24T05:55:53.729Z,13.40
2023-03-24T05:57:25.837Z,13.40
2023-03-24T05:58:58.826Z,13.40
2023-03-24T06:00:33.549Z,13.50
2023-03-24T06:02:07.752Z,13.50
2023-03-24T06:03:41.263Z,13.50
2023-03-24T06:05:14.642Z,13.50
2023-03-24T06:06:48.975Z,13.60
2023-03-24T06:08:21.856Z,13.60
2023-03-24T06:09:58.339Z,13.70
2023-03-24T06:11:31.565Z,13.70
2023-03-24T06:13:04.999Z,13.70
2023-03-24T06:14:38.655Z,13.70
2023-03-24T06:16:12.052Z,13.80
2023-03-24T06:17:45.837Z,13.80
2023-03-24T06:19:22.559Z,13.80
2023-03-24T06:21:00.697Z,13.90
2023-03-24T06:22:36.334Z,13.90
2023-03-24T06:24:09.519Z,13.90
2023-03-24T06:25:44.680Z,14.00
2023-03-24T06:27:21.596Z,14.00
2023-03-24T06:28:54.682Z,14.00
2023-03-24T06:30:27.851Z,14.00
2023-03-24T06:32:01.078Z,14.00
2023-03-24T06:33:34.382Z,14.00
2023-03-24T06:35:07.870Z,14.00
2023-03-24T06:36:40.997Z,14.00
2023-03-24T06:38:15.470Z,14.00
2023-03-24T06:39:47.634Z,13.90
2023-03-24T06:41:20.688Z,13.90
2023-03-24T06:42:53.675Z,13.90
2023-03-24T06:44:27.049Z,13.90
2023-03-24T06:46:00.015Z,13.90
2023-03-24T06:47:33.068Z,13.90
2023-03-24T06:49:06.136Z,13.90
2023-03-24T06:50:40.767Z,13.90
2023-03-24T06:52:14.426Z,13.90
2023-03-24T06:53:48.943Z,14.00
2023-03-24T06:55:22.767Z,14.00
2023-03-24T06:56:56.523Z,14.00
2023-03-24T06:58:29.457Z,14.10
2023-03-24T07:00:05.671Z,14.20
2023-03-24T07:01:39.672Z,14.30
2023-03-24T07:03:14.070Z,14.40
2023-03-24T07:04:47.242Z,14.60
2023-03-24T07:06:22.886Z,14.70
2023-03-24T07:09:33.666Z,14.90
2023-03-24T07:11:09.843Z,15.00
2023-03-24T07:12:43.036Z,15.10
2023-03-24T07:14:16.020Z,15.10
2023-03-24T07:15:49.005Z,15.10
2023-03-24T07:17:23.644Z,15.20
2023-03-24T07:18:57.289Z,15.20
2023-03-24T07:20:30.543Z,15.30
2023-03-24T07:22:03.528Z,15.20
2023-03-24T07:23:36.704Z,15.30
2023-03-24T07:25:14.139Z,15.30
2023-03-24T07:26:47.206Z,15.20
2023-03-24T07:28:20.580Z,15.30
2023-03-24T07:29:53.344Z,15.30
2023-03-24T07:31:26.328Z,15.30
2023-03-24T07:33:02.077Z,15.20
2023-03-24T07:34:36.904Z,15.20
2023-03-24T07:36:10.651Z,15.10
2023-03-24T07:37:44.500Z,15.10
2023-03-24T07:39:17.432Z,15.00
2023-03-24T07:40:51.796Z,14.90
2023-03-24T07:42:25.211Z,14.90
2023-03-24T07:43:58.216Z,14.80
2023-03-24T07:45:31.333Z,14.80
2023-03-24T07:47:04.390Z,14.80
2023-03-24T07:48:37.389Z,14.80
2023-03-24T07:50:11.693Z,14.90
2023-03-24T07:51:44.668Z,14.90
2023-03-24T07:53:19.960Z,14.90
2023-03-24T07:54:53.247Z,14.90
2023-03-24T07:56:27.677Z,14.90
2023-03-24T07:58:00.757Z,14.90
2023-03-24T07:59:34.149Z,14.90
2023-03-24T08:01:09.826Z,14.90
2023-03-24T08:02:43.613Z,14.90
2023-03-24T08:04:16.933Z,15.00
2023-03-24T08:05:50.886Z,15.00
2023-03-24T08:07:24.854Z,15.10
2023-03-24T08:08:57.844Z,15.00
2023-03-24T08:10:31.739Z,15.00
2023-03-24T08:12:17.455Z,15.10
2023-03-24T08:13:53.333Z,15.10
2023-03-24T08:15:28.377Z,15.10
2023-03-24T08:17:01.489Z,15.10
2023-03-24T08:18:35.148Z,15.20
2023-03-24T08:20:14.437Z,15.20
2023-03-24T08:21:48.056Z,15.20
2023-03-24T08:23:21.164Z,15.10
2023-03-24T08:24:54.072Z,15.10
2023-03-24T08:26:27.398Z,15.20
2023-03-24T08:28:01.653Z,15.20
2023-03-24T08:29:34.596Z,15.20
2023-03-24T08:31:07.589Z,15.30
2023-03-24T08:32:45.161Z,15.30
2023-03-24T08:34:19.208Z,15.20
2023-03-24T08:35:57.505Z,15.20
2023-03-24T08:37:30.603Z,15.20
2023-03-24T08:39:06.382Z,15.20
2023-03-24T08:40:41.037Z,15.20
2023-03-24T08:42:14.119Z,15.20
2023-03-24T08:43:48.770Z,15.20
2023-03-24T08:45:23.940Z,15.20
2023-03-24T08:46:57.170Z,15.20
2023-03-24T08:48:32.385Z,15.20
2023-03-24T08:50:06.972Z,15.30
2023-03-24T08:51:39.984Z,15.30
2023-03-24T08:53:13.394Z,15.40
2023-03-24T08:54:46.560Z,15.40
2023-03-24T08:56:20.370Z,15.40
2023-03-24T08:57:53.803Z,15.40
2023-03-24T08:59:28.340Z,15.30
2023-03-24T09:01:01.501Z,15.30
2023-03-24T09:02:34.712Z,15.30
2023-03-24T09:04:08.330Z,15.20
2023-03-24T09:05:54.293Z,15.20
2023-03-24T09:07:27.292Z,15.20
2023-03-24T09:09:00.418Z,15.10
2023-03-24T09:10:32.509Z,15.10
2023-03-24T09:12:05.570Z,15.10
2023-03-24T09:13:38.528Z,15.00
2023-03-24T09:15:13.958Z,15.00
2023-03-24T09:16:48.552Z,14.90
2023-03-24T09:18:22.850Z,14.90
2023-03-24T09:19:55.827Z,14.80
2023-03-24T09:21:28.897Z,14.80
2023-03-24T09:23:01.882Z,14.70
2023-03-24T09:24:34.941Z,14.60
2023-03-24T09:26:08.080Z,14.50
2023-03-24T09:27:41.053Z,14.50
2023-03-24T09:29:14.027Z,14.40
2023-03-24T09:30:49.011Z,14.30
2023-03-24T09:32:22.738Z,14.40
2023-03-24T09:33:55.785Z,14.30
2023-03-24T09:35:29.272Z,14.20
2023-03-24T09:37:02.371Z,14.20
2023-03-24T09:38:35.993Z,14.20
2023-03-24T09:40:14.916Z,14.20
2023-03-24T09:41:50.528Z,14.20
2023-03-24T09:43:28.547Z,14.30
2023-03-24T09:45:06.129Z,14.30
2023-03-24T09:46:46.569Z,14.30
2023-03-24T09:48:23.381Z,14.40
2023-03-24T09:49:58.945Z,14.50
2023-03-24T09:51:35.911Z,14.60
2023-03-24T09:53:18.294Z,14.70
2023-03-24T09:54:55.400Z,14.90
2023-03-24T09:56:30.635Z,15.10
2023-03-24T09:58:08.364Z,15.10
2023-03-24T09:59:42.041Z,15.10
2023-03-24T10:01:16.673Z,15.30
2023-03-24T10:02:53.721Z,15.40
2023-03-24T10:04:32.091Z,15.50
2023-03-24T10:06:09.684Z,15.60
2023-03-24T10:07:48.563Z,15.70
2023-03-24T10:09:27.319Z,15.80
2023-03-24T10:11:04.432Z,15.80
2023-03-24T10:12:39.698Z,15.90
2023-03-24T10:14:25.587Z,16.00
2023-03-24T10:16:07.043Z,16.00
2023-03-24T10:17:46.852Z,16.10
2023-03-24T10:19:29.896Z,16.20
2023-03-24T10:21:12.426Z,16.30
2023-03-24T10:22:54.062Z,16.30
2023-03-24T10:24:38.242Z,16.40
2023-03-24T10:26:26.619Z,16.50
2023-03-24T10:28:03.518Z,16.70
2023-03-24T10:29:38.389Z,16.90
2023-03-24T10:31:14.827Z,17.00
2023-03-24T10:32:48.332Z,17.00
2023-03-24T10:34:25.675Z,16.80
2023-03-24T10:36:02.525Z,16.70
2023-03-24T10:37:35.544Z,16.50
2023-03-24T10:39:20.953Z,16.40
2023-03-24T10:40:58.313Z,16.30
2023-03-24T10:42:34.319Z,16.20
2023-03-24T10:44:07.678Z,16.30
2023-03-24T10:45:41.929Z,16.40
2023-03-24T10:47:17.353Z,16.30
2023-03-24T10:48:52.673Z,16.20
2023-03-24T10:50:29.152Z,16.10
2023-03-24T10:52:09.563Z,16.00
2023-03-24T10:53:42.733Z,15.90
2023-03-24T10:55:17.370Z,16.00
2023-03-24T10:56:51.923Z,16.10
2023-03-24T10:58:31.380Z,16.00
2023-03-24T11:00:13.120Z,15.90
2023-03-24T11:01:47.229Z,15.90
2023-03-24T11:03:28.546Z,15.90
2023-03-24T11:05:05.328Z,15.80
2023-03-24T11:06:39.888Z,15.80
2023-03-24T11:08:28.570Z,15.70
2023-03-24T11:10:06.542Z,15.60
2023-03-24T11:11:39.460Z,15.60
2023-03-24T11:13:19.541Z,15.60
2023-03-24T11:14:54.151Z,15.70
2023-03-24T11:16:32.394Z,15.70
2023-03-24T11:18:17.198Z,15.70
2023-03-24T11:19:54.303Z,15.60
2023-03-24T11:21:29.320Z,15.60
2023-03-24T11:24:39.252Z,15.40
2023-03-24T11:26:16.195Z,15.50
2023-03-24T11:27:49.848Z,15.60
2023-03-24T11:29:25.894Z,15.60
2023-03-24T11:30:58.961Z,15.70
2023-03-24T11:32:32.380Z,15.80
2023-03-24T11:34:11.015Z,15.80
2023-03-24T11:35:45.066Z,15.90
2023-03-24T11:37:23.329Z,15.90
2023-03-24T11:39:01.053Z,16.00
2023-03-24T11:40:35.970Z,16.20
2023-03-24T11:42:17.393Z,16.30
2023-03-24T11:43:50.680Z,16.40
2023-03-24T11:45:26.437Z,16.40
2023-03-24T11:47:03.586Z,16.50
2023-03-24T11:48:41.780Z,16.50
2023-03-24T11:50:19.754Z,16.50
2023-03-24T11:51:55.437Z,16.70
2023-03-24T11:53:35.168Z,16.80
2023-03-24T11:55:16.546Z,16.90
2023-03-24T11:56:54.103Z,17.10
2023-03-24T11:58:32.759Z,17.20
2023-03-24T12:00:15.155Z,17.30
2023-03-24T12:01:53.713Z,17.40
2023-03-24T12:03:54.020Z,17.40
2023-03-24T12:05:34.014Z,17.30
2023-03-24T12:07:29.023Z,17.20
2023-03-24T12:09:25.393Z,17.10
2023-03-24T12:11:12.824Z,17.00
2023-03-24T12:12:59.343Z,16.80
2023-03-24T12:14:41.008Z,16.70
2023-03-24T12:16:36.326Z,16.70
2023-03-24T12:18:29.956Z,16.50
2023-03-24T12:20:21.718Z,16.60
2023-03-24T12:22:06.644Z,16.80
2023-03-24T12:23:51.232Z,17.00
2023-03-24T12:25:39.232Z,17.40
2023-03-24T12:27:24.380Z,17.50
2023-03-24T12:29:18.653Z,17.30
2023-03-24T12:30:54.410Z,17.10
2023-03-24T12:32:45.919Z,17.10
2023-03-24T12:34:48.460Z,17.00
2023-03-24T12:36:33.330Z,16.80
2023-03-24T12:38:26.816Z,16.70
2023-03-24T12:40:24.458Z,16.80
2023-03-24T12:42:11.356Z,17.00
2023-03-24T12:43:51.940Z,17.40
2023-03-24T12:45:36.199Z,17.50
2023-03-24T12:47:19.229Z,17.50
2023-03-24T12:49:09.487Z,17.40
2023-03-24T12:50:57.022Z,17.40
2023-03-24T12:53:10.992Z,17.40
2023-03-24T12:54:55.001Z,17.30
2023-03-24T12:56:32.392Z,17.30
2023-03-24T12:58:12.806Z,17.20
2023-03-24T12:59:49.859Z,17.30
2023-03-24T13:01:32.022Z,17.50
2023-03-24T13:03:11.478Z,17.90
2023-03-24T13:04:49.582Z,18.10
2023-03-24T13:06:27.408Z,18.20
2023-03-24T13:08:04.233Z,18.10
2023-03-24T13:09:45.970Z,17.90
2023-03-24T13:11:32.627Z,17.70
2023-03-24T13:13:13.192Z,17.60
2023-03-24T13:14:52.951Z,17.50
2023-03-24T13:16:31.944Z,17.40
2023-03-24T13:18:17.926Z,17.50
2023-03-24T13:19:53.041Z,17.40
2023-03-24T13:21:28.525Z,17.30
2023-03-24T13:23:11.806Z,17.30
2023-03-24T13:24:45.704Z,17.10
2023-03-24T13:26:25.722Z,17.30
2023-03-24T13:28:04.410Z,17.30
2023-03-24T13:30:05.742Z,17.30
2023-03-24T13:31:45.588Z,17.20
2023-03-24T13:33:22.411Z,17.30
2023-03-24T13:34:59.842Z,17.30
2023-03-24T13:36:45.626Z,17.30
2023-03-24T13:38:21.829Z,17.30
2023-03-24T13:39:58.852Z,17.20
2023-03-24T13:41:37.539Z,17.00
2023-03-24T13:43:14.195Z,16.60
2023-03-24T13:44:50.261Z,16.30
2023-03-24T13:46:23.409Z,16.00
2023-03-24T13:48:07.315Z,15.80
2023-03-24T13:49:41.498Z,15.50
2023-03-24T13:51:22.026Z,15.10
2023-03-24T13:53:08.816Z,14.20
2023-03-24T13:54:41.895Z,13.70
2023-03-24T13:56:25.901Z,13.40
2023-03-24T13:58:08.616Z,13.20
2023-03-24T13:59:58.217Z,13.00
2023-03-24T14:01:37.689Z,12.90
2023-03-24T14:03:33.565Z,12.80
2023-03-24T14:05:08.147Z,12.80
2023-03-24T14:06:46.859Z,12.70
2023-03-24T14:08:19.928Z,12.70
2023-03-24T14:10:00.132Z,12.70
2023-03-24T14:11:50.027Z,12.80
2023-03-24T14:13:38.889Z,12.90
2023-03-24T14:15:18.865Z,13.10
2023-03-24T14:17:04.278Z,13.20
2023-03-24T14:18:43.432Z,13.40
2023-03-24T14:20:30.476Z,13.60
2023-03-24T14:22:14.298Z,13.80
2023-03-24T14:23:49.245Z,13.90
2023-03-24T14:25:27.990Z,13.90
2023-03-24T14:27:01.214Z,13.90
2023-03-24T14:28:39.410Z,13.90
2023-03-24T14:30:21.499Z,13.70
2023-03-24T14:32:17.060Z,13.50
2023-03-24T14:34:03.946Z,13.10
2023-03-24T14:35:42.202Z,12.70
2023-03-24T14:37:16.404Z,12.50
2023-03-24T14:38:50.102Z,12.30
2023-03-24T14:40:29.836Z,12.20
2023-03-24T14:42:03.142Z,12.20
2023-03-24T14:43:55.891Z,12.40
2023-03-24T14:45:52.698Z,12.50
2023-03-24T14:47:29.823Z,12.60
2023-03-24T14:49:09.321Z,12.70
2023-03-24T14:50:42.548Z,12.90
2023-03-24T14:52:20.439Z,13.00
2023-03-24T14:53:57.761Z,13.10
2023-03-24T14:55:32.148Z,13.10
2023-03-24T14:57:07.087Z,13.10
2023-03-24T14:58:44.001Z,13.10
2023-03-24T15:00:21.661Z,13.20
2023-03-24T15:02:02.287Z,13.10
2023-03-24T15:03:45.927Z,13.10
2023-03-24T15:05:22.905Z,13.10
2023-03-24T15:06:56.252Z,13.00
2023-03-24T15:08:29.174Z,12.80
2023-03-24T15:10:02.103Z,12.80
2023-03-24T15:11:39.541Z,12.80
2023-03-24T15:13:38.124Z,12.70
2023-03-24T15:15:16.635Z,12.70
2023-03-24T15:16:55.316Z,12.60
2023-03-24T15:18:28.604Z,12.50
2023-03-24T15:20:01.451Z,12.50
2023-03-24T15:21:37.014Z,12.50
2023-03-24T15:23:18.027Z,12.50
2023-03-24T15:24:52.931Z,12.40
2023-03-24T15:26:26.811Z,12.30
2023-03-24T15:27:59.797Z,12.30
2023-03-24T15:29:32.797Z,12.30
2023-03-24T15:31:06.384Z,12.40
2023-03-24T15:32:46.188Z,12.40
2023-03-24T15:34:28.598Z,12.40
2023-03-24T15:36:02.201Z,12.40
2023-03-24T15:37:41.439Z,12.40
2023-03-24T15:39:19.434Z,12.40
2023-03-24T15:40:59.727Z,12.40
2023-03-24T15:42:32.763Z,12.40
2023-03-24T15:44:09.609Z,12.40
2023-03-24T15:45:49.516Z,12.50
2023-03-24T15:47:26.075Z,12.50
2023-03-24T15:49:00.936Z,12.60
2023-03-24T15:50:36.442Z,12.60
2023-03-24T15:52:26.686Z,12.70
2023-03-24T15:54:01.121Z,12.70
2023-03-24T15:55:35.878Z,12.80
2023-03-24T15:57:17.167Z,12.70
2023-03-24T15:58:53.273Z,12.80
2023-03-24T16:00:28.566Z,12.80
2023-03-24T16:02:01.729Z,12.80
2023-03-24T16:03:35.820Z,12.80
2023-03-24T16:05:19.729Z,12.80
2023-03-24T16:06:54.141Z,12.80
2023-03-24T16:08:29.528Z,12.90
2023-03-24T16:10:07.142Z,12.90
2023-03-24T16:11:41.450Z,12.80
2023-03-24T16:13:17.429Z,12.80
2023-03-24T16:14:50.639Z,12.80
2023-03-24T16:16:27.284Z,12.80
2023-03-24T16:18:00.520Z,12.80
2023-03-24T16:19:33.818Z,12.80
2023-03-24T16:21:12.347Z,12.80
2023-03-24T16:22:46.575Z,12.80
2023-03-24T16:24:19.574Z,12.80
2023-03-24T16:25:53.882Z,12.70
2023-03-24T16:27:26.840Z,12.70
2023-03-24T16:29:04.252Z,12.70
2023-03-24T16:30:40.489Z,12.60
2023-03-24T16:32:13.530Z,12.60
2023-03-24T16:33:47.010Z,12.60
2023-03-24T16:35:19.970Z,12.60
2023-03-24T16:36:54.492Z,12.50
2023-03-24T16:38:28.238Z,12.50
2023-03-24T16:40:03.388Z,12.50
2023-03-24T16:41:38.148Z,12.50
2023-03-24T16:43:11.335Z,12.50
2023-03-24T16:44:45.440Z,12.50
2023-03-24T16:46:22.133Z,12.50
2023-03-24T16:47:55.242Z,12.60
2023-03-24T16:49:28.389Z,12.50
2023-03-24T16:51:01.382Z,12.50
2023-03-24T16:52:34.445Z,12.50
2023-03-24T16:54:09.124Z,12.50
2023-03-24T16:55:44.305Z,12.50
2023-03-24T16:57:18.664Z,12.50
2023-03-24T16:58:53.183Z,12.40
2023-03-24T17:00:27.481Z,12.40
2023-03-24T17:02:05.269Z,12.40
2023-03-24T17:03:40.131Z,12.40
2023-03-24T17:05:19.376Z,12.40
2023-03-24T17:06:54.316Z,12.40
2023-03-24T17:08:27.400Z,12.40
2023-03-24T17:10:00.383Z,12.30
2023-03-24T17:11:35.495Z,12.30
2023-03-24T17:13:10.986Z,12.40
2023-03-24T17:14:45.403Z,12.30
2023-03-24T17:16:18.370Z,12.30
2023-03-24T17:17:51.713Z,12.30
2023-03-24T17:19:25.655Z,12.30
2023-03-24T17:20:58.618Z,12.30
2023-03-24T17:22:31.528Z,12.30
2023-03-24T17:24:06.717Z,12.20
2023-03-24T17:25:39.926Z,12.20
2023-03-24T17:27:16.687Z,12.10
2023-03-24T17:28:51.391Z,12.10
2023-03-24T17:30:25.904Z,12.10
2023-03-24T17:31:58.860Z,12.10
2023-03-24T17:33:31.823Z,12.00
2023-03-24T17:35:05.274Z,12.00
2023-03-24T17:36:38.234Z,12.00
2023-03-24T17:38:13.980Z,12.00
2023-03-24T17:39:47.255Z,12.00
2023-03-24T17:41:20.321Z,12.00
2023-03-24T17:42:53.313Z,12.00
2023-03-24T17:44:27.667Z,12.00
2023-03-24T17:46:01.225Z,12.00
2023-03-24T17:47:34.373Z,11.90
2023-03-24T17:49:07.477Z,11.90
2023-03-24T17:50:41.372Z,11.80
2023-03-24T17:52:14.347Z,11.80
2023-03-24T17:53:47.468Z,11.70
2023-03-24T17:55:20.558Z,11.80
2023-03-24T17:56:53.604Z,11.80
2023-03-24T17:58:27.696Z,11.80
2023-03-24T18:00:01.942Z,11.80
2023-03-24T18:01:39.459Z,11.80
2023-03-24T18:03:12.555Z,11.80
2023-03-24T18:04:45.763Z,11.80
2023-03-24T18:06:18.710Z,11.80
2023-03-24T18:07:51.785Z,11.70
2023-03-24T18:09:24.793Z,11.70
2023-03-24T18:11:04.676Z,11.70
2023-03-24T18:12:37.766Z,11.70
2023-03-24T18:14:10.706Z,11.70
2023-03-24T18:15:44.950Z,11.70
2023-03-24T18:17:17.874Z,11.70
2023-03-24T18:18:51.532Z,11.70
2023-03-24T18:20:24.488Z,11.60
2023-03-24T18:21:57.571Z,11.60
2023-03-24T18:23:31.817Z,11.60
2023-03-24T18:25:04.971Z,11.60
2023-03-24T18:26:38.082Z,11.60
2023-03-24T18:28:11.765Z,11.50
2023-03-24T18:29:44.715Z,11.40
2023-03-24T18:31:20.927Z,11.40
2023-03-24T18:32:53.941Z,11.40
2023-03-24T18:34:26.589Z,11.30
2023-03-24T18:35:59.610Z,11.30
2023-03-24T18:37:33.202Z,11.20
2023-03-24T18:39:08.194Z,11.20
2023-03-24T18:40:41.110Z,11.10
2023-03-24T18:42:14.026Z,11.10
2023-03-24T18:43:47.517Z,11.10
2023-03-24T18:45:20.764Z,11.10
2023-03-24T18:46:55.562Z,11.10
2023-03-24T18:48:28.590Z,11.00
2023-03-24T18:50:01.949Z,11.00
2023-03-24T18:51:35.570Z,11.00
2023-03-24T18:53:08.652Z,11.00
2023-03-24T18:54:41.668Z,10.90
2023-03-24T18:56:15.101Z,10.90
2023-03-24T18:57:48.165Z,10.80
2023-03-24T18:59:21.271Z,10.80
2023-03-24T19:00:56.140Z,10.70
2023-03-24T19:02:30.506Z,10.70
2023-03-24T19:04:03.824Z,10.70
2023-03-24T19:05:36.320Z,10.70
2023-03-24T19:07:14.414Z,10.70
2023-03-24T19:08:51.664Z,10.70
2023-03-24T19:10:24.636Z,10.70
2023-03-24T19:11:57.646Z,10.70
2023-03-24T19:13:31.090Z,10.60
2023-03-24T19:15:05.830Z,10.60
2023-03-24T19:16:38.935Z,10.60
2023-03-24T19:18:13.677Z,10.60
2023-03-24T19:19:46.725Z,10.60
2023-03-24T19:21:23.036Z,10.50
2023-03-24T19:22:56.436Z,10.50
2023-03-24T19:24:29.276Z,10.40
2023-03-24T19:26:02.707Z,10.40
2023-03-24T19:27:35.730Z,10.30
2023-03-24T19:29:08.742Z,10.30
2023-03-24T19:30:42.497Z,10.20
2023-03-24T19:32:15.540Z,10.20
2023-03-24T19:33:52.140Z,10.20
2023-03-24T19:35:25.200Z,10.10
2023-03-24T19:36:58.294Z,10.10
2023-03-24T19:38:31.309Z,10.00
2023-03-24T19:40:06.919Z,9.90
2023-03-24T19:41:40.191Z,9.90
2023-03-24T19:43:13.447Z,9.80
2023-03-24T19:44:46.265Z,9.90
2023-03-24T19:46:21.017Z,9.80
2023-03-24T19:47:54.057Z,9.80
2023-03-24T19:49:28.452Z,9.80
2023-03-24T19:51:01.572Z,9.70
2023-03-24T19:52:34.801Z,9.70
2023-03-24T19:54:08.033Z,9.70
2023-03-24T19:55:41.042Z,9.70
2023-03-24T19:57:14.149Z,9.70
2023-03-24T19:58:47.204Z,9.70
2023-03-24T20:00:20.605Z,9.70
2023-03-24T20:01:53.551Z,9.80
2023-03-24T20:03:28.980Z,9.70
2023-03-24T20:05:03.888Z,9.80
2023-03-24T20:06:36.911Z,9.80
2023-03-24T20:08:09.919Z,9.70
2023-03-24T20:09:42.988Z,9.70
2023-03-24T20:11:16.298Z,9.70
2023-03-24T20:12:49.129Z,9.70
2023-03-24T20:14:22.211Z,9.70
2023-03-24T20:15:55.323Z,9.70
2023-03-24T20:17:29.607Z,9.70
2023-03-24T20:19:02.810Z,9.70
2023-03-24T20:20:37.098Z,9.80
2023-03-24T20:22:10.209Z,9.80
2023-03-24T20:23:43.172Z,9.80
2023-03-24T20:25:18.245Z,9.80
2023-03-24T20:26:51.663Z,9.90
2023-03-24T20:28:24.726Z,9.80
2023-03-24T20:29:58.198Z,9.80
2023-03-24T20:31:31.939Z,9.80
2023-03-24T20:33:05.129Z,9.80
2023-03-24T20:34:38.838Z,9.80
2023-03-24T20:36:13.473Z,9.80
2023-03-24T20:37:46.793Z,9.80
2023-03-24T20:39:20.422Z,9.70
2023-03-24T20:41:00.593Z,9.70
2023-03-24T20:42:34.508Z,9.70
2023-03-24T20:44:07.667Z,9.70
2023-03-24T20:45:40.782Z,9.70
2023-03-24T20:47:13.917Z,9.60
2023-03-24T20:48:47.164Z,9.70
2023-03-24T20:50:20.536Z,9.60
2023-03-24T20:51:54.796Z,9.70
2023-03-24T20:53:28.570Z,9.60